Time;durP1;ratioP1;P1;durP2;ratioP2;P2;SDS_P1;SDS_P2;PMS_P1;PMS_P2;Temp;Humidity;BMP_temperature;BMP_pressure;BME280_temperature;BME280_humidity;BME280_pressure;Samples;Min_cycle;Max_cycle;Signal;HPM_P1;HPM_P2
2021/01/24 00:00:53;;;;;;;1.58;0.88;;;23.10;30.80;;;;;;5068647;28;20764;-59
2021/01/24 00:03:19;;;;;;;1.30;0.80;;;23.00;30.90;;;;;;5072723;28;20380;-60
2021/01/24 00:05:45;;;;;;;1.27;0.80;;;23.00;30.90;;;;;;5073748;28;20399;-67
2021/01/24 00:08:12;;;;;;;1.42;0.80;;;23.00;30.90;;;;;;5072221;28;20811;-59
2021/01/24 00:10:39;;;;;;;1.20;0.70;;;22.90;30.80;;;;;;5073532;28;20516;-64
2021/01/24 00:13:05;;;;;;;1.15;0.73;;;22.90;30.80;;;;;;5089361;28;20383;-59
2021/01/24 00:15:31;;;;;;;1.98;1.10;;;22.90;30.80;;;;;;5072178;28;20427;-59
2021/01/24 00:17:56;;;;;;;1.90;1.00;;;22.90;30.70;;;;;;5073020;28;20887;-59
2021/01/24 00:20:22;;;;;;;1.87;1.20;;;22.90;30.80;;;;;;5073361;28;20922;-59
2021/01/24 00:22:48;;;;;;;1.75;1.10;;;22.90;30.80;;;;;;5073009;28;20388;-59
2021/01/24 00:25:13;;;;;;;2.50;1.30;;;22.90;30.80;;;;;;5089073;28;20427;-59
2021/01/24 00:27:39;;;;;;;2.00;1.10;;;22.80;30.70;;;;;;5088823;28;20444;-59
2021/01/24 00:30:06;;;;;;;1.97;1.10;;;22.80;30.70;;;;;;5071113;28;20406;-59
2021/01/24 00:32:32;;;;;;;2.23;1.20;;;22.80;30.70;;;;;;5072970;28;20571;-59
2021/01/24 00:34:58;;;;;;;1.52;1.02;;;22.80;30.70;;;;;;5072925;28;20495;-60
2021/01/24 00:37:24;;;;;;;2.08;1.13;;;22.80;30.70;;;;;;5073414;28;20721;-59
2021/01/24 00:39:49;;;;;;;1.67;1.00;;;22.70;30.60;;;;;;5072692;28;20422;-59
2021/01/24 00:42:15;;;;;;;1.40;0.98;;;22.70;30.60;;;;;;5072871;28;20398;-59
2021/01/24 00:44:40;;;;;;;1.50;1.00;;;22.70;30.60;;;;;;5088466;28;20916;-60
2021/01/24 00:47:06;;;;;;;1.98;1.10;;;22.70;30.60;;;;;;5073058;28;20395;-68
2021/01/24 00:49:32;;;;;;;1.73;1.20;;;22.70;30.60;;;;;;5072611;28;20459;-59
2021/01/24 00:51:58;;;;;;;1.90;1.10;;;22.70;30.60;;;;;;5072355;28;20391;-60
2021/01/24 00:54:24;;;;;;;1.50;1.00;;;22.60;30.50;;;;;;5072847;28;20942;-59
2021/01/24 00:56:49;;;;;;;1.50;1.00;;;22.60;30.50;;;;;;5072419;28;20471;-59
2021/01/24 00:59:15;;;;;;;1.63;1.00;;;22.60;30.50;;;;;;5072738;28;20396;-62
2021/01/24 01:01:41;;;;;;;1.50;1.00;;;22.60;30.50;;;;;;5072657;28;20584;-60
2021/01/24 01:04:06;;;;;;;1.88;1.00;;;22.50;30.40;;;;;;5072103;28;20419;-59
2021/01/24 01:06:32;;;;;;;1.90;0.93;;;22.50;30.40;;;;;;5071150;28;20403;-59
2021/01/24 01:08:58;;;;;;;1.67;1.08;;;22.50;30.50;;;;;;5072433;28;20403;-60
2021/01/24 01:11:23;;;;;;;1.40;1.00;;;22.50;30.40;;;;;;5072541;28;20818;-59
2021/01/24 01:13:49;;;;;;;1.63;0.90;;;22.50;30.40;;;;;;5072114;28;20392;-60
2021/01/24 01:16:15;;;;;;;1.52;1.00;;;22.50;30.40;;;;;;5069920;28;20383;-69
2021/01/24 01:18:41;;;;;;;1.40;1.00;;;22.40;31.00;;;;;;5071261;28;20479;-62
2021/01/24 01:21:06;;;;;;;1.92;1.00;;;22.40;30.30;;;;;;5072193;28;20787;-61
2021/01/24 01:23:32;;;;;;;1.33;0.93;;;22.40;30.40;;;;;;5072248;28;20820;-65
2021/01/24 01:25:57;;;;;;;1.30;0.90;;;22.40;30.30;;;;;;5072092;28;20487;-63
2021/01/24 01:28:23;;;;;;;2.07;1.10;;;22.40;30.70;;;;;;5072373;28;20386;-68
2021/01/24 01:30:49;;;;;;;1.50;0.90;;;22.30;30.50;;;;;;5072128;28;20394;-71
2021/01/24 01:33:16;;;;;;;1.27;0.90;;;22.30;30.30;;;;;;5085149;28;20419;-63
2021/01/24 01:35:42;;;;;;;1.65;0.90;;;22.30;30.30;;;;;;5071924;28;20411;-59
2021/01/24 01:38:08;;;;;;;1.20;0.80;;;22.30;30.30;;;;;;5071872;28;20384;-60
2021/01/24 01:40:34;;;;;;;1.70;1.00;;;22.30;30.30;;;;;;5072069;28;20399;-60
2021/01/24 01:43:00;;;;;;;1.30;0.88;;;22.30;30.30;;;;;;5072025;28;20379;-60
2021/01/24 01:45:25;;;;;;;1.20;0.90;;;22.30;30.30;;;;;;5071957;28;20416;-61
2021/01/24 01:47:52;;;;;;;1.20;0.80;;;22.20;30.30;;;;;;5071589;28;20391;-66
2021/01/24 01:50:19;;;;;;;1.20;0.70;;;22.20;30.30;;;;;;5071342;28;20520;-59
2021/01/24 01:52:45;;;;;;;1.40;0.80;;;22.20;30.30;;;;;;5071952;28;20380;-59
2021/01/24 01:55:12;;;;;;;1.40;0.85;;;22.20;30.30;;;;;;5072031;28;20954;-59
2021/01/24 01:57:38;;;;;;;1.05;0.65;;;22.20;30.30;;;;;;5072958;28;20875;-59
2021/01/24 02:00:06;;;;;;;0.70;0.45;;;22.20;30.30;;;;;;5071257;28;20400;-59
2021/01/24 02:03:04;;;;;;;1.35;0.80;;;22.10;30.20;;;;;;5071448;28;20376;-59
2021/01/24 02:05:49;;;;;;;1.50;0.70;;;22.20;30.30;;;;;;5046923;28;20438;-59
2021/01/24 02:08:27;;;;;;;1.38;0.80;;;22.10;30.30;;;;;;5066674;28;20668;-59
2021/01/24 02:11:00;;;;;;;1.30;0.90;;;22.10;30.30;;;;;;5072525;28;20394;-59
2021/01/24 02:13:52;;;;;;;2.30;0.82;;;22.10;30.30;;;;;;5072487;28;20914;-59
2021/01/24 02:16:19;;;;;;;1.20;0.70;;;22.00;30.30;;;;;;5072331;28;20400;-59
2021/01/24 02:18:47;;;;;;;1.10;0.75;;;22.10;30.50;;;;;;5072305;28;20879;-59
2021/01/24 02:21:29;;;;;;;1.00;0.70;;;22.00;30.50;;;;;;5072389;28;20442;-59
2021/01/24 02:24:05;;;;;;;1.10;0.80;;;22.00;30.30;;;;;;5071227;28;20447;-59
2021/01/24 02:27:02;;;;;;;1.10;0.80;;;22.00;30.50;;;;;;5054087;28;20373;-59
2021/01/24 02:30:04;;;;;;;1.50;0.75;;;22.00;31.00;;;;;;5052190;28;20389;-59
2021/01/24 02:32:32;;;;;;;1.00;0.70;;;21.90;30.50;;;;;;5052162;28;20386;-59
2021/01/24 02:35:00;;;;;;;0.95;0.70;;;21.90;31.10;;;;;;5051835;28;20419;-59
2021/01/24 02:37:28;;;;;;;1.02;0.60;;;21.90;31.00;;;;;;5052383;28;20968;-59
2021/01/24 02:39:54;;;;;;;1.20;0.80;;;21.90;31.00;;;;;;5051860;28;20378;-59
2021/01/24 02:42:21;;;;;;;1.00;0.70;;;21.90;31.20;;;;;;5050601;28;20404;-58
2021/01/24 02:44:48;;;;;;;1.00;0.65;;;21.80;30.90;;;;;;5051900;28;20421;-59
2021/01/24 02:47:15;;;;;;;1.30;0.90;;;21.80;30.70;;;;;;5052190;28;20874;-59
2021/01/24 02:49:44;;;;;;;1.30;0.77;;;21.80;30.80;;;;;;5051932;28;20885;-59
2021/01/24 02:52:12;;;;;;;1.25;0.70;;;21.80;30.80;;;;;;5051509;28;20746;-59
2021/01/24 02:54:39;;;;;;;1.00;0.70;;;21.80;30.80;;;;;;5051755;28;20476;-59
2021/01/24 02:57:05;;;;;;;1.20;0.70;;;21.80;30.60;;;;;;5051947;28;20450;-59
2021/01/24 02:59:33;;;;;;;1.20;0.70;;;21.80;30.80;;;;;;5051775;28;20792;-59
2021/01/24 03:01:59;;;;;;;1.23;0.80;;;21.80;30.80;;;;;;5067830;28;20487;-59
2021/01/24 03:04:25;;;;;;;1.20;0.77;;;21.70;30.90;;;;;;5070352;28;20498;-60
2021/01/24 03:06:51;;;;;;;1.20;0.80;;;21.70;30.70;;;;;;5071696;28;20396;-59
2021/01/24 03:09:17;;;;;;;1.70;1.13;;;21.70;30.80;;;;;;5071193;28;20390;-59
2021/01/24 03:11:46;;;;;;;1.77;1.02;;;21.70;30.80;;;;;;5071552;28;20388;-59
2021/01/24 03:14:18;;;;;;;1.83;1.40;;;21.70;30.70;;;;;;5071062;28;20383;-59
2021/01/24 03:16:48;;;;;;;1.95;1.10;;;21.70;31.00;;;;;;5071486;28;20395;-59
2021/01/24 03:19:17;;;;;;;2.08;1.30;;;21.70;30.70;;;;;;5071733;28;20388;-59
2021/01/24 03:21:45;;;;;;;2.47;1.60;;;21.80;30.80;;;;;;5071506;28;20427;-59
2021/01/24 03:24:13;;;;;;;2.67;1.73;;;21.90;30.50;;;;;;5070912;28;20408;-59
2021/01/24 03:26:39;;;;;;;3.00;1.98;;;21.90;31.00;;;;;;5071363;28;20394;-59
2021/01/24 03:29:05;;;;;;;3.35;2.33;;;22.00;30.40;;;;;;5071445;28;20396;-59
2021/01/24 03:31:32;;;;;;;2.78;1.90;;;22.00;30.10;;;;;;5071322;28;20379;-60
2021/01/24 03:33:58;;;;;;;3.38;2.35;;;22.10;30.70;;;;;;5070865;28;20423;-59
2021/01/24 03:36:23;;;;;;;4.35;2.50;;;22.10;30.80;;;;;;5072452;28;20475;-59
2021/01/24 03:38:49;;;;;;;4.20;3.00;;;22.10;30.80;;;;;;5075444;28;20462;-59
2021/01/24 03:41:15;;;;;;;4.80;2.60;;;22.10;30.50;;;;;;5075447;28;20423;-59
2021/01/24 03:43:40;;;;;;;4.13;2.55;;;22.20;30.40;;;;;;5075247;28;20491;-59
2021/01/24 03:46:06;;;;;;;3.97;2.60;;;22.20;30.50;;;;;;5074829;28;20504;-59
2021/01/24 03:48:32;;;;;;;3.78;2.80;;;22.20;30.60;;;;;;5075303;28;20395;-69
2021/01/24 03:50:58;;;;;;;4.27;2.80;;;22.20;30.30;;;;;;5075205;28;20490;-59
2021/01/24 03:53:24;;;;;;;4.00;2.70;;;22.20;30.60;;;;;;5075240;28;20616;-59
2021/01/24 03:55:49;;;;;;;4.10;2.90;;;22.20;30.50;;;;;;5075136;28;20384;-59
2021/01/24 03:58:15;;;;;;;4.40;2.70;;;22.20;30.30;;;;;;5074733;28;20387;-59
2021/01/24 04:00:40;;;;;;;3.80;2.80;;;22.20;30.60;;;;;;5075006;28;20787;-59
2021/01/24 04:03:06;;;;;;;4.88;3.05;;;22.20;30.70;;;;;;5074926;28;20384;-59
2021/01/24 04:05:32;;;;;;;4.13;3.00;;;22.20;30.40;;;;;;5074817;28;20780;-59
2021/01/24 04:07:57;;;;;;;4.07;2.72;;;22.20;30.50;;;;;;5074740;28;20395;-59
2021/01/24 04:10:23;;;;;;;3.53;2.57;;;22.20;30.20;;;;;;5074564;28;20733;-59
2021/01/24 04:12:49;;;;;;;3.55;2.42;;;22.20;30.50;;;;;;5074734;28;20903;-59
2021/01/24 04:15:17;;;;;;;4.40;2.70;;;22.20;30.40;;;;;;5074769;28;20403;-59
2021/01/24 04:17:43;;;;;;;4.45;2.70;;;22.20;30.20;;;;;;5073327;28;20883;-59
2021/01/24 04:20:09;;;;;;;3.70;2.50;;;22.30;30.40;;;;;;5074255;28;20465;-59
2021/01/24 04:22:35;;;;;;;3.78;2.55;;;22.20;30.30;;;;;;5073271;28;20384;-60
2021/01/24 04:25:01;;;;;;;3.50;2.30;;;22.30;30.40;;;;;;5074526;28;20422;-61
2021/01/24 04:27:26;;;;;;;3.20;2.40;;;22.20;30.30;;;;;;5074495;28;20390;-59
2021/01/24 04:29:52;;;;;;;3.10;2.30;;;22.30;29.80;;;;;;5074449;28;20387;-60
2021/01/24 04:32:18;;;;;;;3.40;2.20;;;22.30;30.30;;;;;;5073997;28;20411;-59
2021/01/24 04:34:44;;;;;;;2.90;2.07;;;22.30;30.00;;;;;;5074197;28;20408;-59
2021/01/24 04:37:09;;;;;;;2.92;1.92;;;22.30;30.30;;;;;;5074459;28;20388;-59
2021/01/24 04:39:35;;;;;;;3.00;2.13;;;22.30;31.00;;;;;;5074268;28;20388;-59
2021/01/24 04:42:01;;;;;;;3.53;2.30;;;22.30;30.40;;;;;;5072810;28;20397;-59
2021/01/24 04:44:27;;;;;;;3.10;2.00;;;22.30;30.30;;;;;;5073902;28;20412;-60
2021/01/24 04:46:53;;;;;;;3.00;2.00;;;22.30;30.40;;;;;;5074192;28;20380;-59
2021/01/24 04:49:20;;;;;;;2.65;2.00;;;22.30;29.90;;;;;;5073484;28;20440;-59
2021/01/24 04:51:46;;;;;;;2.40;1.73;;;22.30;30.20;;;;;;5074345;28;20376;-59
2021/01/24 04:54:12;;;;;;;2.70;1.93;;;22.30;30.20;;;;;;5073662;28;20785;-59
2021/01/24 04:56:38;;;;;;;3.27;2.10;;;22.30;30.00;;;;;;5072724;28;20961;-60
2021/01/24 04:59:05;;;;;;;2.70;1.80;;;22.30;29.80;;;;;;5074083;28;20419;-59
2021/01/24 05:01:34;;;;;;;2.90;1.80;;;22.30;29.90;;;;;;5073925;28;20422;-60
2021/01/24 05:03:59;;;;;;;2.75;1.80;;;22.30;29.60;;;;;;5073551;28;20436;-59
2021/01/24 05:06:26;;;;;;;2.27;1.60;;;22.30;29.80;;;;;;5073620;28;20524;-59
2021/01/24 05:08:52;;;;;;;2.65;1.90;;;22.30;29.70;;;;;;5073838;28;20379;-60
2021/01/24 05:11:20;;;;;;;2.30;1.70;;;22.30;29.90;;;;;;5073767;28;20402;-60
2021/01/24 05:13:45;;;;;;;2.35;1.70;;;22.30;29.80;;;;;;5073627;28;20751;-59
2021/01/24 05:16:12;;;;;;;2.80;1.80;;;22.30;29.80;;;;;;5073293;28;20380;-59
2021/01/24 05:18:39;;;;;;;2.35;1.60;;;22.30;29.70;;;;;;5073564;28;20390;-59
2021/01/24 05:21:08;;;;;;;2.65;1.67;;;22.30;29.80;;;;;;5073590;28;20387;-59
2021/01/24 05:23:37;;;;;;;3.10;1.70;;;22.30;30.00;;;;;;5073373;28;20387;-59
2021/01/24 05:26:08;;;;;;;2.30;1.60;;;22.30;29.70;;;;;;5071985;28;20907;-60
2021/01/24 05:28:33;;;;;;;2.40;1.70;;;22.20;29.60;;;;;;5073503;28;20379;-59
2021/01/24 05:31:04;;;;;;;2.03;1.43;;;22.30;29.80;;;;;;5073542;28;20400;-59
2021/01/24 05:33:29;;;;;;;2.30;1.50;;;22.20;29.70;;;;;;5073281;28;20376;-59
2021/01/24 05:35:55;;;;;;;2.00;1.50;;;22.20;29.50;;;;;;5073212;28;20810;-59
2021/01/24 05:38:27;;;;;;;2.00;1.50;;;22.30;29.60;;;;;;5072789;28;20770;-59
2021/01/24 05:40:53;;;;;;;2.20;1.42;;;22.20;29.50;;;;;;5073086;28;20449;-59
2021/01/24 05:43:23;;;;;;;1.90;1.27;;;22.20;29.60;;;;;;5073117;28;20380;-58
2021/01/24 05:45:49;;;;;;;1.90;1.40;;;22.20;29.50;;;;;;5073078;28;20482;-59
2021/01/24 05:48:15;;;;;;;2.10;1.50;;;22.20;29.50;;;;;;5072511;28;20759;-59
2021/01/24 05:50:44;;;;;;;2.33;1.60;;;22.20;29.60;;;;;;5072891;28;20398;-59
2021/01/24 05:53:12;;;;;;;1.83;1.30;;;22.20;29.40;;;;;;5072861;28;20429;-59
2021/01/24 05:55:38;;;;;;;1.88;1.30;;;22.20;29.40;;;;;;5072788;28;20388;-60
2021/01/24 05:58:27;;;;;;;1.55;1.10;;;22.20;29.40;;;;;;5072738;28;20399;-60
2021/01/24 06:00:53;;;;;;;1.88;1.35;;;22.20;29.80;;;;;;5065243;28;20482;-60
2021/01/24 06:03:19;;;;;;;1.80;1.33;;;22.20;29.50;;;;;;5071389;28;20483;-59
2021/01/24 06:05:46;;;;;;;1.75;1.33;;;22.20;29.40;;;;;;5072683;28;20516;-59
2021/01/24 06:08:14;;;;;;;1.73;1.17;;;22.20;29.50;;;;;;5072231;28;20451;-59
2021/01/24 06:10:40;;;;;;;1.50;1.02;;;22.20;29.50;;;;;;5072594;28;20388;-59
2021/01/24 06:13:14;;;;;;;1.77;1.08;;;22.20;29.50;;;;;;5072792;28;20380;-58
2021/01/24 06:15:41;;;;;;;1.45;0.95;;;22.20;29.60;;;;;;5072479;28;20379;-60
2021/01/24 06:18:14;;;;;;;1.80;1.25;;;22.20;29.60;;;;;;5072091;28;20478;-69
2021/01/24 06:20:45;;;;;;;1.40;1.08;;;22.20;29.80;;;;;;5072430;28;20524;-59
2021/01/24 06:23:13;;;;;;;1.60;1.10;;;22.20;29.50;;;;;;5072417;28;20445;-59
2021/01/24 06:25:43;;;;;;;1.42;1.10;;;22.20;29.50;;;;;;5072123;28;20470;-59
2021/01/24 06:28:20;;;;;;;1.33;0.90;;;22.20;29.40;;;;;;5071981;28;20387;-59
2021/01/24 06:30:47;;;;;;;1.50;1.00;;;22.20;29.50;;;;;;5070919;28;20424;-59
2021/01/24 06:33:23;;;;;;;1.50;1.00;;;22.20;29.50;;;;;;5072226;28;20471;-59
2021/01/24 06:35:51;;;;;;;1.50;1.02;;;22.20;29.40;;;;;;5071933;28;20418;-59
2021/01/24 06:38:39;;;;;;;1.55;0.93;;;22.20;29.40;;;;;;5070361;28;20855;-59
2021/01/24 06:41:09;;;;;;;1.30;0.90;;;22.20;29.40;;;;;;5072325;28;20392;-60
2021/01/24 06:43:45;;;;;;;1.30;1.00;;;22.20;29.60;;;;;;5071933;28;20744;-59
2021/01/24 06:46:31;;;;;;;1.48;1.00;;;22.20;29.50;;;;;;5071608;28;20384;-59
2021/01/24 06:48:57;;;;;;;1.50;0.97;;;22.20;29.60;;;;;;5068013;28;20431;-59
2021/01/24 06:51:42;;;;;;;1.15;0.85;;;22.20;29.50;;;;;;5072144;28;20396;-61
2021/01/24 06:54:29;;;;;;;1.65;1.13;;;22.10;29.60;;;;;;5071682;28;20390;-59
2021/01/24 06:57:07;;;;;;;1.30;0.90;;;22.10;29.60;;;;;;5071789;28;20403;-59
2021/01/24 06:59:33;;;;;;;1.30;0.90;;;22.10;29.40;;;;;;5071737;28;20395;-59
2021/01/24 07:02:20;;;;;;;1.30;0.90;;;22.10;29.50;;;;;;5071726;28;20419;-60
2021/01/24 07:05:12;;;;;;;1.20;0.80;;;22.10;29.30;;;;;;5071516;28;20805;-58
2021/01/24 07:07:40;;;;;;;1.23;0.90;;;22.10;29.50;;;;;;5071616;28;20387;-59
2021/01/24 07:10:08;;;;;;;1.65;1.00;;;22.10;29.30;;;;;;5071210;28;20418;-63
2021/01/24 07:12:39;;;;;;;1.83;0.90;;;21.90;29.10;;;;;;5070987;28;20403;-60
2021/01/24 07:15:09;;;;;;;1.40;0.90;;;21.90;28.90;;;;;;5071675;28;20894;-59
2021/01/24 07:17:36;;;;;;;2.25;0.80;;;21.90;29.00;;;;;;5071521;28;20383;-59
2021/01/24 07:20:02;;;;;;;1.67;0.80;;;21.90;29.60;;;;;;5071538;28;20395;-59
2021/01/24 07:22:29;;;;;;;1.30;0.90;;;21.80;29.60;;;;;;5070819;28;20384;-59
2021/01/24 07:24:55;;;;;;;1.10;0.80;;;21.90;29.50;;;;;;5071600;28;20466;-59
2021/01/24 07:27:29;;;;;;;1.98;0.80;;;21.90;29.80;;;;;;5071455;28;20856;-59
2021/01/24 07:29:56;;;;;;;1.58;0.70;;;21.90;29.60;;;;;;5070199;28;20380;-60
2021/01/24 07:32:23;;;;;;;1.65;0.70;;;21.80;29.70;;;;;;5070950;28;20384;-62
2021/01/24 07:34:52;;;;;;;1.70;0.77;;;21.80;29.80;;;;;;5071271;28;20878;-59
2021/01/24 07:37:18;;;;;;;1.08;0.70;;;21.80;29.80;;;;;;5071469;28;20450;-59
2021/01/24 07:39:47;;;;;;;1.50;0.60;;;21.80;29.90;;;;;;5071315;28;20383;-59
2021/01/24 07:42:13;;;;;;;1.50;0.70;;;21.80;29.90;;;;;;5070870;28;20415;-59
2021/01/24 07:44:40;;;;;;;1.25;0.70;;;21.80;30.00;;;;;;5071139;28;20776;-60
2021/01/24 07:47:06;;;;;;;1.30;0.70;;;21.70;30.00;;;;;;5071251;28;20375;-60
2021/01/24 07:49:32;;;;;;;1.00;0.60;;;21.70;30.00;;;;;;5071201;28;20394;-60
2021/01/24 07:51:58;;;;;;;2.03;0.60;;;21.70;30.00;;;;;;5069936;28;20379;-60
2021/01/24 07:54:24;;;;;;;1.52;0.57;;;21.70;30.00;;;;;;5070774;28;20395;-59
2021/01/24 07:56:50;;;;;;;0.83;0.50;;;21.70;30.00;;;;;;5069860;28;20380;-59
2021/01/24 07:59:17;;;;;;;1.30;0.65;;;21.70;30.00;;;;;;5069862;28;20393;-61
2021/01/24 08:01:43;;;;;;;1.20;0.50;;;21.70;30.00;;;;;;5069798;28;20501;-60
2021/01/24 08:04:09;;;;;;;1.27;0.50;;;21.60;30.00;;;;;;5069634;28;20501;-60
2021/01/24 08:06:35;;;;;;;1.90;0.50;;;21.70;30.10;;;;;;5070804;28;20835;-59
2021/01/24 08:09:06;;;;;;;1.83;0.68;;;21.70;30.30;;;;;;5070937;28;20423;-59
2021/01/24 08:11:32;;;;;;;3.70;0.60;;;21.70;31.00;;;;;;5070950;28;20496;-60
2021/01/24 08:13:58;;;;;;;0.95;0.50;;;21.70;30.70;;;;;;5071026;28;20831;-59
2021/01/24 08:16:32;;;;;;;2.50;0.60;;;21.70;30.50;;;;;;5070371;28;20443;-59
2021/01/24 08:18:58;;;;;;;1.70;0.60;;;21.60;30.30;;;;;;5070870;28;20733;-59
2021/01/24 08:21:25;;;;;;;2.45;0.50;;;21.70;30.30;;;;;;5069608;28;20392;-59
2021/01/24 08:23:52;;;;;;;1.20;0.50;;;21.60;30.30;;;;;;5072774;28;20400;-61
2021/01/24 08:26:18;;;;;;;1.25;0.50;;;21.60;30.30;;;;;;5074200;28;20403;-59
2021/01/24 08:28:46;;;;;;;0.85;0.40;;;21.60;30.30;;;;;;5074507;28;20407;-59
2021/01/24 08:31:17;;;;;;;0.98;0.60;;;21.60;30.50;;;;;;5074556;28;20395;-58
2021/01/24 08:33:43;;;;;;;1.83;0.50;;;21.60;30.20;;;;;;5074224;28;20431;-59
2021/01/24 08:36:18;;;;;;;1.27;0.70;;;21.60;30.70;;;;;;5074314;28;20427;-60
2021/01/24 08:38:45;;;;;;;0.80;0.40;;;21.60;30.80;;;;;;5074420;28;20380;-59
2021/01/24 08:41:12;;;;;;;1.65;0.55;;;21.60;30.60;;;;;;5074420;28;20440;-59
2021/01/24 08:43:38;;;;;;;0.63;0.40;;;21.60;30.40;;;;;;5074435;28;20786;-59
2021/01/24 08:46:18;;;;;;;3.97;0.60;;;21.70;30.30;;;;;;5072956;28;20396;-59
2021/01/24 08:48:44;;;;;;;1.38;0.50;;;21.70;30.60;;;;;;5074159;28;20444;-59
2021/01/24 08:51:10;;;;;;;3.90;0.60;;;21.70;30.70;;;;;;5074257;28;20471;-58
2021/01/24 08:53:36;;;;;;;3.58;0.60;;;21.70;30.70;;;;;;5074121;28;20380;-59
2021/01/24 08:56:01;;;;;;;2.13;0.50;;;21.70;30.60;;;;;;5072721;28;20418;-59
2021/01/24 08:58:28;;;;;;;1.87;0.60;;;21.70;30.60;;;;;;5073557;28;20372;-59
2021/01/24 09:01:11;;;;;;;3.08;0.50;;;21.70;30.60;;;;;;5074085;28;20396;-59
2021/01/24 09:03:37;;;;;;;1.50;0.50;;;21.80;30.60;;;;;;5073947;28;20876;-60
2021/01/24 09:06:15;;;;;;;3.47;0.60;;;21.70;30.40;;;;;;5073905;28;20396;-59
2021/01/24 09:08:52;;;;;;;1.77;0.50;;;21.70;30.30;;;;;;5073730;28;20872;-59
2021/01/24 09:11:19;;;;;;;2.88;0.55;;;21.80;30.20;;;;;;5074149;28;20445;-74
2021/01/24 09:13:45;;;;;;;1.00;0.40;;;21.80;30.00;;;;;;5073746;28;20438;-59
2021/01/24 09:16:10;;;;;;;0.90;0.50;;;21.80;30.00;;;;;;5073462;28;20769;-59
2021/01/24 09:18:36;;;;;;;1.70;0.40;;;21.80;29.90;;;;;;5073323;28;20400;-59
2021/01/24 09:21:03;;;;;;;1.00;0.50;;;21.80;29.80;;;;;;5073647;28;20388;-59
2021/01/24 09:23:30;;;;;;;1.77;0.35;;;21.90;29.70;;;;;;5073468;28;20400;-59
2021/01/24 09:25:56;;;;;;;0.70;0.35;;;21.90;29.70;;;;;;5073565;28;20403;-59
2021/01/24 09:28:23;;;;;;;1.30;0.40;;;22.00;29.80;;;;;;5073051;28;20379;-59
2021/01/24 09:30:48;;;;;;;1.30;0.35;;;22.10;29.70;;;;;;5073532;28;20399;-59
2021/01/24 09:33:14;;;;;;;1.10;0.30;;;22.10;29.60;;;;;;5073493;28;20388;-59
2021/01/24 09:35:40;;;;;;;1.00;0.37;;;22.10;29.50;;;;;;5072935;28;20494;-59
2021/01/24 09:38:06;;;;;;;0.85;0.40;;;22.10;29.40;;;;;;5073368;28;20384;-59
2021/01/24 09:40:31;;;;;;;0.50;0.30;;;22.20;29.40;;;;;;5072752;28;20869;-59
2021/01/24 09:42:57;;;;;;;0.70;0.30;;;22.20;29.40;;;;;;5073303;28;20449;-59
2021/01/24 09:45:23;;;;;;;1.37;0.40;;;22.20;29.30;;;;;;5073166;28;20961;-59
2021/01/24 09:47:51;;;;;;;1.80;0.50;;;22.30;29.20;;;;;;5070280;28;20445;-60
2021/01/24 09:50:18;;;;;;;1.83;0.30;;;22.30;29.40;;;;;;5071528;28;20384;-59
2021/01/24 09:52:44;;;;;;;2.38;0.50;;;22.30;29.40;;;;;;5071965;28;20396;-62
2021/01/24 09:55:11;;;;;;;2.20;0.45;;;22.30;29.40;;;;;;5087736;28;20407;-70
2021/01/24 09:57:37;;;;;;;2.75;0.50;;;22.30;29.40;;;;;;5070479;28;20963;-64
2021/01/24 10:00:05;;;;;;;2.30;0.43;;;22.30;29.40;;;;;;5071890;28;20392;-59
2021/01/24 10:02:31;;;;;;;0.93;0.40;;;22.30;29.40;;;;;;5071281;28;20540;-61
2021/01/24 10:04:56;;;;;;;1.40;0.50;;;22.30;29.70;;;;;;5071765;28;20877;-59
2021/01/24 10:07:22;;;;;;;1.80;0.50;;;22.30;29.50;;;;;;5072851;28;20732;-59
2021/01/24 10:09:47;;;;;;;1.60;0.40;;;22.30;29.40;;;;;;5072629;28;20390;-59
2021/01/24 10:12:18;;;;;;;1.40;0.50;;;22.30;29.40;;;;;;5072089;28;20402;-59
2021/01/24 10:14:43;;;;;;;0.77;0.40;;;22.30;29.50;;;;;;5087657;28;20457;-59
2021/01/24 10:17:10;;;;;;;1.50;0.57;;;22.30;29.40;;;;;;5072556;28;20954;-59
2021/01/24 10:19:36;;;;;;;1.87;0.47;;;22.30;29.40;;;;;;5072475;28;20486;-59
2021/01/24 10:22:01;;;;;;;1.23;0.60;;;22.30;29.40;;;;;;5072466;28;20380;-59
2021/01/24 10:24:27;;;;;;;0.77;0.30;;;22.30;29.40;;;;;;5071768;28;20435;-59
2021/01/24 10:26:53;;;;;;;1.50;0.30;;;22.30;29.40;;;;;;5072620;28;20713;-58
2021/01/24 10:29:18;;;;;;;0.93;0.40;;;22.30;29.40;;;;;;5072264;28;20404;-58
2021/01/24 10:31:44;;;;;;;1.30;0.40;;;22.30;29.40;;;;;;5071148;28;20448;-58
2021/01/24 10:34:10;;;;;;;0.70;0.40;;;22.20;29.40;;;;;;5070563;28;20391;-59
2021/01/24 10:36:35;;;;;;;0.90;0.40;;;22.30;29.40;;;;;;5071850;28;20384;-59
2021/01/24 10:39:01;;;;;;;0.77;0.40;;;22.30;29.40;;;;;;5072320;28;20387;-58
2021/01/24 10:41:27;;;;;;;1.30;0.40;;;22.30;29.40;;;;;;5072375;28;20469;-59
2021/01/24 10:43:53;;;;;;;0.50;0.30;;;22.30;29.40;;;;;;5072017;28;20892;-59
2021/01/24 10:46:18;;;;;;;0.70;0.40;;;22.30;29.40;;;;;;5070050;28;20888;-59
2021/01/24 10:48:44;;;;;;;0.70;0.30;;;22.30;29.40;;;;;;5071960;28;20954;-59
2021/01/24 10:51:10;;;;;;;0.67;0.40;;;22.30;29.40;;;;;;5072113;28;20387;-59
2021/01/24 10:53:36;;;;;;;1.10;0.40;;;22.30;29.40;;;;;;5071899;28;20392;-59
2021/01/24 10:56:01;;;;;;;1.25;0.30;;;22.40;29.50;;;;;;5071877;28;20386;-59
2021/01/24 10:58:27;;;;;;;1.10;0.50;;;22.30;29.40;;;;;;5071179;28;20392;-59
2021/01/24 11:00:53;;;;;;;0.80;0.40;;;22.30;29.40;;;;;;5071786;28;21077;-59
2021/01/24 11:03:19;;;;;;;1.75;0.30;;;22.40;29.40;;;;;;5071668;28;20388;-59
2021/01/24 11:05:44;;;;;;;3.77;0.40;;;22.30;29.40;;;;;;5071545;28;20756;-60
2021/01/24 11:08:10;;;;;;;4.72;0.60;;;22.30;29.50;;;;;;5071582;28;20406;-59
2021/01/24 11:10:36;;;;;;;5.80;0.70;;;22.20;29.90;;;;;;5071004;28;20415;-59
2021/01/24 11:13:02;;;;;;;4.00;0.50;;;22.20;30.00;;;;;;5071493;28;20884;-59
2021/01/24 11:15:27;;;;;;;3.63;0.40;;;22.30;30.00;;;;;;5071413;28;20398;-59
2021/01/24 11:17:54;;;;;;;3.23;0.40;;;22.40;29.90;;;;;;5071422;28;20791;-59
2021/01/24 11:20:19;;;;;;;2.20;0.50;;;22.40;29.80;;;;;;5071236;28;20872;-59
2021/01/24 11:22:45;;;;;;;5.35;0.55;;;22.40;30.00;;;;;;5070869;28;20867;-59
2021/01/24 11:25:11;;;;;;;4.32;0.65;;;22.30;30.20;;;;;;5071288;28;20456;-59
2021/01/24 11:27:37;;;;;;;4.47;0.60;;;22.40;30.30;;;;;;5071196;28;20505;-59
2021/01/24 11:30:09;;;;;;;2.63;0.50;;;22.50;30.70;;;;;;5071321;28;20868;-58
2021/01/24 11:32:35;;;;;;;2.60;0.53;;;22.50;30.60;;;;;;5069806;28;20453;-59
2021/01/24 11:35:01;;;;;;;5.50;0.50;;;22.50;30.80;;;;;;5069888;28;20416;-59
2021/01/24 11:37:27;;;;;;;3.08;0.50;;;22.60;30.90;;;;;;5069758;28;20388;-63
2021/01/24 11:39:53;;;;;;;2.40;0.43;;;22.50;30.70;;;;;;5070041;28;20411;-59
2021/01/24 11:42:19;;;;;;;4.60;0.60;;;22.50;30.70;;;;;;5071253;28;20387;-59
2021/01/24 11:44:44;;;;;;;3.10;0.50;;;22.50;31.20;;;;;;5070794;28;20407;-60
2021/01/24 11:47:10;;;;;;;2.38;0.60;;;22.50;31.40;;;;;;5071190;28;20399;-59
2021/01/24 11:49:36;;;;;;;2.43;0.53;;;22.60;31.30;;;;;;5071372;28;20371;-59
2021/01/24 11:52:01;;;;;;;1.42;0.40;;;22.60;31.20;;;;;;5070867;28;20395;-59
2021/01/24 11:54:27;;;;;;;2.00;0.60;;;22.70;31.30;;;;;;5070335;28;20383;-59
2021/01/24 11:56:53;;;;;;;4.00;0.90;;;22.70;31.20;;;;;;5071121;28;20395;-58
2021/01/24 11:59:18;;;;;;;2.22;0.68;;;22.70;31.00;;;;;;5073948;28;20508;-58
2021/01/24 12:01:44;;;;;;;1.77;0.60;;;22.80;31.00;;;;;;5074878;28;20392;-58
2021/01/24 12:04:10;;;;;;;4.20;0.77;;;22.70;31.00;;;;;;5074965;28;20502;-58
2021/01/24 12:06:35;;;;;;;2.65;0.80;;;22.80;31.00;;;;;;5074522;28;20387;-58
2021/01/24 12:09:01;;;;;;;3.30;0.90;;;22.80;30.90;;;;;;5074403;28;20745;-58
2021/01/24 12:11:26;;;;;;;3.33;1.20;;;22.70;30.90;;;;;;5074636;28;20387;-59
2021/01/24 12:13:52;;;;;;;4.27;1.00;;;22.80;30.90;;;;;;5074489;28;20793;-59
2021/01/24 12:16:18;;;;;;;4.60;1.52;;;22.80;30.80;;;;;;5074190;28;20384;-59
2021/01/24 12:18:44;;;;;;;4.23;1.30;;;22.80;31.00;;;;;;5073896;28;20441;-59
2021/01/24 12:21:09;;;;;;;3.92;1.40;;;22.80;30.90;;;;;;5075433;28;20441;-60
2021/01/24 12:23:35;;;;;;;4.10;1.20;;;22.80;30.80;;;;;;5074972;28;20495;-69
2021/01/24 12:26:00;;;;;;;2.63;1.50;;;22.80;30.80;;;;;;5074849;28;20502;-59
2021/01/24 12:28:26;;;;;;;2.65;1.50;;;22.80;31.40;;;;;;5074233;28;20437;-60
2021/01/24 12:30:52;;;;;;;3.17;1.50;;;22.80;30.90;;;;;;5074681;28;20395;-59
2021/01/24 12:33:17;;;;;;;4.27;1.90;;;22.70;31.10;;;;;;5074717;28;20384;-59
2021/01/24 12:35:43;;;;;;;2.58;1.42;;;22.70;31.10;;;;;;5074041;28;20399;-59
2021/01/24 12:38:09;;;;;;;3.13;1.33;;;22.80;30.80;;;;;;5074541;28;20387;-59
2021/01/24 12:40:37;;;;;;;4.00;1.60;;;22.80;30.80;;;;;;5089919;28;20414;-59
2021/01/24 12:43:02;;;;;;;3.60;1.40;;;22.80;30.60;;;;;;5074303;28;20883;-59
2021/01/24 12:45:28;;;;;;;2.53;1.33;;;22.70;30.90;;;;;;5074180;28;20476;-59
2021/01/24 12:47:54;;;;;;;4.60;1.42;;;22.80;31.00;;;;;;5073056;28;20470;-59
2021/01/24 12:50:20;;;;;;;3.40;1.63;;;22.80;30.80;;;;;;5073624;28;20399;-59